createdAt,value
2022-10-20T00:00:29.544Z,13.30
2022-10-20T00:03:30.647Z,10.20
2022-10-20T00:06:16.664Z,12.20
2022-10-20T00:09:01.337Z,11.50
2022-10-20T00:11:31.811Z,11.90
2022-10-20T00:16:58.718Z,16.70
2022-10-20T00:19:39.678Z,11.20
2022-10-20T00:22:11.458Z,12.40
2022-10-20T00:24:41.205Z,12.40
2022-10-20T00:27:15.824Z,11.30
2022-10-20T00:29:48.223Z,13.20
2022-10-20T00:32:31.683Z,12.50
2022-10-20T00:35:09.290Z,12.20
2022-10-20T00:37:39.703Z,10.90
2022-10-20T00:40:18.635Z,15.40
2022-10-20T00:43:01.313Z,13.10
2022-10-20T00:45:35.608Z,13.10
2022-10-20T00:48:18.497Z,10.20
2022-10-20T00:50:51.804Z,11.50
2022-10-20T00:53:44.504Z,15.30
2022-10-20T00:56:14.053Z,12.00
2022-10-20T00:58:48.389Z,13.30
2022-10-20T01:01:25.826Z,12.00
2022-10-20T01:03:55.711Z,11.90
2022-10-20T01:06:29.059Z,11.90
2022-10-20T01:09:09.772Z,12.20
2022-10-20T01:11:46.485Z,10.90
2022-10-20T01:15:16.154Z,11.00
2022-10-20T01:18:07.916Z,12.10
2022-10-20T01:20:46.644Z,10.50
2022-10-20T01:23:44.669Z,11.90
2022-10-20T01:26:32.598Z,13.40
2022-10-20T01:29:12.441Z,10.50
2022-10-20T01:31:45.227Z,12.00
2022-10-20T01:34:34.886Z,12.20
2022-10-20T01:37:34.083Z,9.90
2022-10-20T01:40:34.351Z,10.30
2022-10-20T01:43:12.267Z,11.90
2022-10-20T01:45:55.764Z,10.50
2022-10-20T01:48:43.121Z,9.70
2022-10-20T01:51:13.085Z,10.40
2022-10-20T01:53:42.925Z,13.00
2022-10-20T01:56:31.440Z,11.50
2022-10-20T01:59:19.522Z,9.90
2022-10-20T02:02:24.903Z,11.00
2022-10-20T02:05:32.108Z,11.90
2022-10-20T02:08:27.152Z,13.30
2022-10-20T02:11:09.417Z,12.80
2022-10-20T02:13:41.884Z,11.90
2022-10-20T02:16:24.899Z,13.10
2022-10-20T02:19:04.535Z,13.40
2022-10-20T02:21:39.998Z,11.80
2022-10-20T02:24:20.875Z,13.50
2022-10-20T02:26:59.697Z,12.90
2022-10-20T02:29:35.554Z,15.20
2022-10-20T02:32:11.112Z,14.40
2022-10-20T02:34:42.730Z,13.70
2022-10-20T02:39:50.350Z,11.50
2022-10-20T02:42:19.410Z,14.30
2022-10-20T02:44:59.085Z,11.30
2022-10-20T02:47:28.864Z,11.60
2022-10-20T02:50:01.386Z,11.20
2022-10-20T02:52:39.177Z,10.30
2022-10-20T02:55:09.343Z,14.30
2022-10-20T02:57:38.875Z,17.10
2022-10-20T03:00:09.398Z,14.40
2022-10-20T03:02:52.715Z,13.70
2022-10-20T03:05:22.735Z,11.70
2022-10-20T03:07:52.323Z,14.90
2022-10-20T03:10:23.994Z,14.60
2022-10-20T03:12:53.626Z,12.10
2022-10-20T03:15:22.700Z,16.00
2022-10-20T03:17:51.894Z,15.50
2022-10-20T03:20:24.379Z,13.40
2022-10-20T03:22:53.718Z,14.40
2022-10-20T03:25:25.999Z,13.60
2022-10-20T03:28:04.922Z,12.60
2022-10-20T03:30:42.694Z,14.90
2022-10-20T03:33:12.013Z,14.80
2022-10-20T03:35:41.985Z,12.20
2022-10-20T03:38:11.178Z,15.50
2022-10-20T03:40:41.369Z,13.90
2022-10-20T03:43:21.083Z,13.50
2022-10-20T03:45:51.909Z,16.70
2022-10-20T03:48:21.631Z,16.60
2022-10-20T03:50:58.154Z,12.60
2022-10-20T03:53:32.578Z,15.10
2022-10-20T03:56:10.140Z,15.50
2022-10-20T03:58:41.563Z,13.40
2022-10-20T04:01:35.993Z,15.10
2022-10-20T04:04:05.120Z,14.00
2022-10-20T04:06:40.556Z,14.20
2022-10-20T04:09:22.568Z,14.80
2022-10-20T04:11:56.669Z,14.10
2022-10-20T04:14:26.133Z,16.10
2022-10-20T04:16:55.118Z,13.90
2022-10-20T04:19:24.829Z,16.30
2022-10-20T04:22:06.400Z,16.90
2022-10-20T04:24:36.300Z,15.00
2022-10-20T04:27:08.563Z,16.20
2022-10-20T04:29:38.306Z,16.60
2022-10-20T04:32:20.859Z,19.30
2022-10-20T04:34:53.672Z,13.70
2022-10-20T04:37:26.517Z,17.60
2022-10-20T04:40:05.774Z,17.00
2022-10-20T04:42:55.279Z,18.90
2022-10-20T04:45:30.281Z,19.90
2022-10-20T04:48:08.345Z,21.50
2022-10-20T04:51:28.867Z,19.60
2022-10-20T04:54:07.425Z,20.20
2022-10-20T04:56:41.102Z,21.50
2022-10-20T04:59:13.514Z,20.80
2022-10-20T05:01:56.962Z,18.80
2022-10-20T05:04:35.423Z,21.70
2022-10-20T05:07:05.684Z,19.70
2022-10-20T05:09:49.037Z,19.80
2022-10-20T05:12:29.751Z,22.70
2022-10-20T05:15:00.164Z,24.90
2022-10-20T05:17:43.589Z,23.20
2022-10-20T05:20:14.018Z,18.70
2022-10-20T05:23:01.033Z,20.00
2022-10-20T05:25:36.393Z,22.80
2022-10-20T05:28:07.078Z,20.40
2022-10-20T05:33:22.945Z,22.70
2022-10-20T05:35:54.467Z,25.70
2022-10-20T05:38:37.448Z,30.40
2022-10-20T05:41:16.948Z,27.80
2022-10-20T05:44:04.807Z,26.80
2022-10-20T05:46:40.755Z,23.90
2022-10-20T05:49:36.140Z,26.30
2022-10-20T05:52:06.137Z,26.70
2022-10-20T05:54:41.884Z,27.10
2022-10-20T05:57:20.087Z,31.70
2022-10-20T05:59:59.016Z,28.90
2022-10-20T06:02:29.519Z,30.30
2022-10-20T06:05:03.787Z,34.30
2022-10-20T06:07:36.566Z,38.90
2022-10-20T06:10:14.804Z,43.70
2022-10-20T06:12:44.926Z,39.40
2022-10-20T06:15:16.357Z,41.10
2022-10-20T06:17:57.844Z,43.40
2022-10-20T06:20:29.453Z,43.40
2022-10-20T06:23:02.237Z,43.00
2022-10-20T06:25:33.175Z,43.30
2022-10-20T06:28:06.830Z,42.40
2022-10-20T06:30:37.001Z,42.90
2022-10-20T06:33:22.592Z,42.50
2022-10-20T06:35:52.191Z,46.50
2022-10-20T06:38:23.068Z,42.60
2022-10-20T06:40:53.338Z,42.50
2022-10-20T06:43:23.367Z,45.40
2022-10-20T06:46:04.339Z,45.00
2022-10-20T06:48:47.600Z,42.70
2022-10-20T06:51:30.606Z,47.40
2022-10-20T06:54:03.351Z,47.50
2022-10-20T06:56:38.151Z,54.30
2022-10-20T06:59:10.164Z,53.90
2022-10-20T07:01:48.401Z,48.90
2022-10-20T07:04:18.150Z,44.00
2022-10-20T07:06:56.856Z,38.50
2022-10-20T07:09:27.933Z,45.20
2022-10-20T07:11:57.040Z,48.30
2022-10-20T07:14:39.775Z,44.00
2022-10-20T07:17:10.788Z,46.70
2022-10-20T07:19:39.889Z,40.80
2022-10-20T07:22:11.439Z,38.20
2022-10-20T07:24:58.529Z,47.40
2022-10-20T07:27:27.764Z,46.40
2022-10-20T07:29:57.268Z,40.20
2022-10-20T07:32:26.625Z,40.80
2022-10-20T07:34:58.617Z,44.40
2022-10-20T07:37:27.918Z,41.60
2022-10-20T07:39:57.382Z,41.80
2022-10-20T07:42:26.593Z,39.10
2022-10-20T07:45:00.424Z,36.70
2022-10-20T07:47:38.175Z,38.50
2022-10-20T07:50:10.721Z,37.50
2022-10-20T07:52:40.902Z,39.50
2022-10-20T07:55:23.907Z,41.30
2022-10-20T07:58:10.465Z,41.40
2022-10-20T08:03:10.394Z,41.50
2022-10-20T08:05:39.303Z,44.60
2022-10-20T08:08:17.372Z,37.70
2022-10-20T08:10:48.934Z,41.50
2022-10-20T08:13:18.336Z,46.00
2022-10-20T08:15:49.643Z,38.20
2022-10-20T08:18:26.679Z,42.20
2022-10-20T08:21:07.047Z,45.70
2022-10-20T08:23:39.900Z,43.60
2022-10-20T08:26:11.958Z,43.70
2022-10-20T08:28:47.547Z,39.90
2022-10-20T08:31:17.292Z,35.80
2022-10-20T08:33:51.420Z,41.10
2022-10-20T08:36:21.986Z,38.20
2022-10-20T08:39:03.570Z,37.40
2022-10-20T08:44:42.199Z,30.70
2022-10-20T08:47:33.937Z,32.10
2022-10-20T08:50:10.009Z,31.00
2022-10-20T08:52:44.721Z,31.00
2022-10-20T08:55:27.057Z,28.70
2022-10-20T08:58:15.703Z,29.60
2022-10-20T09:00:47.768Z,26.80
2022-10-20T09:03:30.485Z,33.60
2022-10-20T09:06:10.304Z,35.40
2022-10-20T09:08:47.114Z,31.00
2022-10-20T09:11:39.318Z,27.70
2022-10-20T09:14:14.011Z,26.40
2022-10-20T09:17:01.230Z,29.20
2022-10-20T09:19:33.696Z,29.80
2022-10-20T09:22:08.050Z,28.70
2022-10-20T09:24:39.229Z,25.10
2022-10-20T09:27:41.109Z,23.80
2022-10-20T09:30:21.708Z,26.10
2022-10-20T09:32:51.310Z,28.60
2022-10-20T09:35:34.538Z,25.30
2022-10-20T09:38:39.492Z,24.20
2022-10-20T09:41:29.818Z,23.50
2022-10-20T09:44:09.610Z,22.00
2022-10-20T09:46:44.949Z,24.80
2022-10-20T09:49:34.556Z,19.50
2022-10-20T09:52:16.982Z,17.20
2022-10-20T09:55:01.856Z,17.20
2022-10-20T09:57:56.440Z,15.90
2022-10-20T10:03:23.529Z,15.00
2022-10-20T10:06:01.463Z,15.10
2022-10-20T10:08:48.089Z,14.50
2022-10-20T10:11:25.250Z,14.40
2022-10-20T10:13:55.782Z,16.70
2022-10-20T10:16:44.847Z,12.00
2022-10-20T10:19:21.716Z,14.10
2022-10-20T10:22:24.024Z,13.80
2022-10-20T10:24:56.214Z,11.50
2022-10-20T10:27:33.705Z,11.00
2022-10-20T10:30:31.316Z,10.10
2022-10-20T10:33:20.987Z,8.40
2022-10-20T10:35:55.543Z,7.20
2022-10-20T10:38:32.126Z,7.40
2022-10-20T10:41:21.679Z,8.80
2022-10-20T10:44:24.861Z,4.50
2022-10-20T10:47:24.095Z,5.30
2022-10-20T10:50:12.503Z,6.00
2022-10-20T10:53:25.324Z,6.20
2022-10-20T10:56:32.041Z,4.70
2022-10-20T10:59:42.578Z,2.90
2022-10-20T11:02:37.192Z,2.50
2022-10-20T11:05:40.323Z,3.60
2022-10-20T11:08:52.398Z,3.50
2022-10-20T11:11:39.778Z,4.00
2022-10-20T11:14:28.738Z,4.30
2022-10-20T11:17:48.284Z,3.40
2022-10-20T11:21:04.926Z,3.30
2022-10-20T11:23:49.080Z,3.50
2022-10-20T11:26:55.103Z,3.60
2022-10-20T11:30:18.514Z,7.00
2022-10-20T11:33:21.539Z,4.90
2022-10-20T11:36:01.965Z,5.40
2022-10-20T11:38:42.568Z,6.00
2022-10-20T11:44:57.721Z,5.40
2022-10-20T11:47:53.231Z,5.40
2022-10-20T11:50:27.038Z,4.00
2022-10-20T11:53:47.533Z,5.30
2022-10-20T11:56:49.085Z,3.40
2022-10-20T11:59:59.265Z,5.20
2022-10-20T12:02:55.067Z,3.90
2022-10-20T12:05:35.037Z,5.90
2022-10-20T12:08:28.972Z,2.20
2022-10-20T12:11:26.872Z,4.20
2022-10-20T12:17:56.710Z,3.90
2022-10-20T12:20:25.606Z,4.30
2022-10-20T12:23:24.184Z,5.30
2022-10-20T12:25:54.222Z,3.30
2022-10-20T12:28:23.853Z,5.10
